sensor_id;sensor_type;location;lat;lon;timestamp;temperature;humidity
10431;DHT22;5262;59.958;17.726;2023-07-16T00:01:57;15.60;99.90
10431;DHT22;5262;59.958;17.726;2023-07-16T00:04:23;15.60;99.90
10431;DHT22;5262;59.958;17.726;2023-07-16T00:06:49;15.60;99.90
10431;DHT22;5262;59.958;17.726;2023-07-16T00:09:15;15.60;99.90
10431;DHT22;5262;59.958;17.726;2023-07-16T00:11:40;15.60;99.90
10431;DHT22;5262;59.958;17.726;2023-07-16T00:14:06;15.60;99.90
10431;DHT22;5262;59.958;17.726;2023-07-16T00:16:31;15.60;99.90
10431;DHT22;5262;59.958;17.726;2023-07-16T00:18:57;15.70;99.90
10431;DHT22;5262;59.958;17.726;2023-07-16T00:21:23;15.80;99.90
10431;DHT22;5262;59.958;17.726;2023-07-16T00:23:49;15.80;99.90
10431;DHT22;5262;59.958;17.726;2023-07-16T00:26:15;15.80;99.90
10431;DHT22;5262;59.958;17.726;2023-07-16T00:28:40;15.80;99.90
10431;DHT22;5262;59.958;17.726;2023-07-16T00:31:06;15.90;99.90
10431;DHT22;5262;59.958;17.726;2023-07-16T00:33:31;15.90;99.90
10431;DHT22;5262;59.958;17.726;2023-07-16T00:35:57;15.90;99.90
10431;DHT22;5262;59.958;17.726;2023-07-16T00:38:23;15.80;99.90
10431;DHT22;5262;59.958;17.726;2023-07-16T00:40:49;15.80;99.90
10431;DHT22;5262;59.958;17.726;2023-07-16T00:43:14;15.90;99.90
10431;DHT22;5262;59.958;17.726;2023-07-16T00:45:41;15.90;99.90
10431;DHT22;5262;59.958;17.726;2023-07-16T00:48:07;15.90;99.90
10431;DHT22;5262;59.958;17.726;2023-07-16T00:50:37;15.90;99.90
10431;DHT22;5262;59.958;17.726;2023-07-16T00:53:08;15.80;99.90
10431;DHT22;5262;59.958;17.726;2023-07-16T00:55:35;15.80;99.90
10431;DHT22;5262;59.958;17.726;2023-07-16T00:58:03;15.80;99.90
10431;DHT22;5262;59.958;17.726;2023-07-16T01:00:35;15.80;99.90
10431;DHT22;5262;59.958;17.726;2023-07-16T01:03:02;15.80;99.90
10431;DHT22;5262;59.958;17.726;2023-07-16T01:05:34;15.80;99.90
10431;DHT22;5262;59.958;17.726;2023-07-16T01:08:04;15.80;99.90
10431;DHT22;5262;59.958;17.726;2023-07-16T01:10:31;15.90;99.90
10431;DHT22;5262;59.958;17.726;2023-07-16T01:12:57;15.90;99.90
10431;DHT22;5262;59.958;17.726;2023-07-16T01:15:24;15.90;99.90
10431;DHT22;5262;59.958;17.726;2023-07-16T01:17:49;15.90;99.90
10431;DHT22;5262;59.958;17.726;2023-07-16T01:20:15;16.00;99.90
10431;DHT22;5262;59.958;17.726;2023-07-16T01:22:52;16.00;99.90
10431;DHT22;5262;59.958;17.726;2023-07-16T01:25:48;16.00;99.90
10431;DHT22;5262;59.958;17.726;2023-07-16T01:31:06;16.10;99.90
10431;DHT22;5262;59.958;17.726;2023-07-16T01:33:33;16.10;99.90
10431;DHT22;5262;59.958;17.726;2023-07-16T01:35:59;16.20;99.90
10431;DHT22;5262;59.958;17.726;2023-07-16T01:38:25;16.20;99.90
10431;DHT22;5262;59.958;17.726;2023-07-16T01:40:51;16.20;99.90
10431;DHT22;5262;59.958;17.726;2023-07-16T01:43:16;16.20;99.90
10431;DHT22;5262;59.958;17.726;2023-07-16T01:45:42;16.20;99.90
10431;DHT22;5262;59.958;17.726;2023-07-16T01:50:47;16.30;99.90
10431;DHT22;5262;59.958;17.726;2023-07-16T01:53:12;16.30;99.90
10431;DHT22;5262;59.958;17.726;2023-07-16T01:55:38;16.30;99.90
10431;DHT22;5262;59.958;17.726;2023-07-16T01:58:03;16.30;99.90
10431;DHT22;5262;59.958;17.726;2023-07-16T02:00:31;16.40;99.90
10431;DHT22;5262;59.958;17.726;2023-07-16T02:02:56;16.40;99.90
10431;DHT22;5262;59.958;17.726;2023-07-16T02:05:22;16.40;99.90
10431;DHT22;5262;59.958;17.726;2023-07-16T02:07:47;16.40;99.90
10431;DHT22;5262;59.958;17.726;2023-07-16T02:10:13;16.40;99.90
10431;DHT22;5262;59.958;17.726;2023-07-16T02:12:39;16.40;99.90
10431;DHT22;5262;59.958;17.726;2023-07-16T02:15:05;16.30;99.90
10431;DHT22;5262;59.958;17.726;2023-07-16T02:17:30;16.30;99.90
10431;DHT22;5262;59.958;17.726;2023-07-16T02:19:56;16.30;99.90
10431;DHT22;5262;59.958;17.726;2023-07-16T02:22:22;16.30;99.90
10431;DHT22;5262;59.958;17.726;2023-07-16T02:24:47;16.30;99.90
10431;DHT22;5262;59.958;17.726;2023-07-16T02:27:13;16.30;99.90
10431;DHT22;5262;59.958;17.726;2023-07-16T02:29:38;16.30;99.90
10431;DHT22;5262;59.958;17.726;2023-07-16T02:32:04;16.30;99.90
10431;DHT22;5262;59.958;17.726;2023-07-16T02:34:30;16.30;99.90
10431;DHT22;5262;59.958;17.726;2023-07-16T02:36:55;16.30;99.90
10431;DHT22;5262;59.958;17.726;2023-07-16T02:39:21;16.30;99.90
10431;DHT22;5262;59.958;17.726;2023-07-16T02:41:46;16.30;99.90
10431;DHT22;5262;59.958;17.726;2023-07-16T02:44:12;16.40;99.90
10431;DHT22;5262;59.958;17.726;2023-07-16T02:46:38;16.40;99.90
10431;DHT22;5262;59.958;17.726;2023-07-16T02:49:03;16.50;99.90
10431;DHT22;5262;59.958;17.726;2023-07-16T02:51:30;16.50;99.90
10431;DHT22;5262;59.958;17.726;2023-07-16T02:53:55;16.50;99.90
10431;DHT22;5262;59.958;17.726;2023-07-16T02:56:21;16.40;99.90
10431;DHT22;5262;59.958;17.726;2023-07-16T02:58:47;16.50;99.90
10431;DHT22;5262;59.958;17.726;2023-07-16T03:01:13;16.50;99.90
10431;DHT22;5262;59.958;17.726;2023-07-16T03:03:39;16.50;99.90
10431;DHT22;5262;59.958;17.726;2023-07-16T03:06:04;16.50;99.90
10431;DHT22;5262;59.958;17.726;2023-07-16T03:08:30;16.60;99.90
10431;DHT22;5262;59.958;17.726;2023-07-16T03:10:57;16.60;99.90
10431;DHT22;5262;59.958;17.726;2023-07-16T03:13:23;16.50;99.90
10431;DHT22;5262;59.958;17.726;2023-07-16T03:15:48;16.50;99.90
10431;DHT22;5262;59.958;17.726;2023-07-16T03:18:15;16.40;99.90
10431;DHT22;5262;59.958;17.726;2023-07-16T03:20:41;16.30;99.90
10431;DHT22;5262;59.958;17.726;2023-07-16T03:23:06;16.30;99.90
10431;DHT22;5262;59.958;17.726;2023-07-16T03:25:32;16.20;99.90
10431;DHT22;5262;59.958;17.726;2023-07-16T03:27:58;16.20;99.90
10431;DHT22;5262;59.958;17.726;2023-07-16T03:30:23;16.20;99.90
10431;DHT22;5262;59.958;17.726;2023-07-16T03:32:49;16.20;99.90
10431;DHT22;5262;59.958;17.726;2023-07-16T03:35:14;16.10;99.90
10431;DHT22;5262;59.958;17.726;2023-07-16T03:37:40;15.90;99.90
10431;DHT22;5262;59.958;17.726;2023-07-16T03:40:17;15.70;99.90
10431;DHT22;5262;59.958;17.726;2023-07-16T03:42:43;15.60;99.90
10431;DHT22;5262;59.958;17.726;2023-07-16T03:45:10;15.60;99.90
10431;DHT22;5262;59.958;17.726;2023-07-16T03:47:36;15.50;99.90
10431;DHT22;5262;59.958;17.726;2023-07-16T03:50:02;15.50;99.90
10431;DHT22;5262;59.958;17.726;2023-07-16T03:52:28;15.50;99.90
10431;DHT22;5262;59.958;17.726;2023-07-16T03:54:54;15.50;99.90
10431;DHT22;5262;59.958;17.726;2023-07-16T03:57:20;15.60;99.90
10431;DHT22;5262;59.958;17.726;2023-07-16T03:59:46;15.60;99.90
10431;DHT22;5262;59.958;17.726;2023-07-16T04:02:11;15.60;99.90
10431;DHT22;5262;59.958;17.726;2023-07-16T04:04:37;15.60;99.90
10431;DHT22;5262;59.958;17.726;2023-07-16T04:07:03;15.60;99.90
10431;DHT22;5262;59.958;17.726;2023-07-16T04:09:28;15.60;99.90
10431;DHT22;5262;59.958;17.726;2023-07-16T04:11:54;15.70;99.90
10431;DHT22;5262;59.958;17.726;2023-07-16T04:14:20;15.70;99.90
10431;DHT22;5262;59.958;17.726;2023-07-16T04:16:45;15.70;99.90
10431;DHT22;5262;59.958;17.726;2023-07-16T04:19:11;15.70;99.90
10431;DHT22;5262;59.958;17.726;2023-07-16T04:21:36;15.70;99.90
10431;DHT22;5262;59.958;17.726;2023-07-16T04:24:03;15.70;99.90
10431;DHT22;5262;59.958;17.726;2023-07-16T04:26:29;15.70;99.90
10431;DHT22;5262;59.958;17.726;2023-07-16T04:28:54;15.70;99.90
10431;DHT22;5262;59.958;17.726;2023-07-16T04:31:20;15.70;99.90
10431;DHT22;5262;59.958;17.726;2023-07-16T04:33:45;15.70;99.90
10431;DHT22;5262;59.958;17.726;2023-07-16T04:36:11;15.70;99.90
10431;DHT22;5262;59.958;17.726;2023-07-16T04:38:37;15.70;99.90
10431;DHT22;5262;59.958;17.726;2023-07-16T04:41:02;15.70;99.90
10431;DHT22;5262;59.958;17.726;2023-07-16T04:43:28;15.60;99.90
10431;DHT22;5262;59.958;17.726;2023-07-16T04:45:53;15.60;99.90
10431;DHT22;5262;59.958;17.726;2023-07-16T04:48:19;15.50;99.90
10431;DHT22;5262;59.958;17.726;2023-07-16T04:50:45;15.60;99.90
10431;DHT22;5262;59.958;17.726;2023-07-16T04:53:10;15.50;99.90
10431;DHT22;5262;59.958;17.726;2023-07-16T04:55:37;15.60;99.90
10431;DHT22;5262;59.958;17.726;2023-07-16T04:58:03;15.60;99.90
10431;DHT22;5262;59.958;17.726;2023-07-16T05:00:28;15.70;99.90
10431;DHT22;5262;59.958;17.726;2023-07-16T05:02:54;15.70;99.90
10431;DHT22;5262;59.958;17.726;2023-07-16T05:05:20;15.70;99.90
10431;DHT22;5262;59.958;17.726;2023-07-16T05:07:45;15.80;99.90
10431;DHT22;5262;59.958;17.726;2023-07-16T05:10:11;15.80;99.90
10431;DHT22;5262;59.958;17.726;2023-07-16T05:12:37;15.80;99.90
10431;DHT22;5262;59.958;17.726;2023-07-16T05:15:02;15.80;99.90
10431;DHT22;5262;59.958;17.726;2023-07-16T05:17:28;15.80;99.90
10431;DHT22;5262;59.958;17.726;2023-07-16T05:19:54;15.90;99.90
10431;DHT22;5262;59.958;17.726;2023-07-16T05:22:19;16.00;99.90
10431;DHT22;5262;59.958;17.726;2023-07-16T05:24:45;16.10;99.90
10431;DHT22;5262;59.958;17.726;2023-07-16T05:27:10;16.20;99.90
10431;DHT22;5262;59.958;17.726;2023-07-16T05:29:36;16.30;99.90
10431;DHT22;5262;59.958;17.726;2023-07-16T05:32:02;16.40;99.90
10431;DHT22;5262;59.958;17.726;2023-07-16T05:34:28;16.60;99.90
10431;DHT22;5262;59.958;17.726;2023-07-16T05:36:54;16.90;99.90
10431;DHT22;5262;59.958;17.726;2023-07-16T05:39:21;17.00;99.90
10431;DHT22;5262;59.958;17.726;2023-07-16T05:41:47;17.20;99.90
10431;DHT22;5262;59.958;17.726;2023-07-16T05:44:13;17.30;99.90
10431;DHT22;5262;59.958;17.726;2023-07-16T05:46:38;17.40;99.90
10431;DHT22;5262;59.958;17.726;2023-07-16T05:49:04;17.40;99.90
10431;DHT22;5262;59.958;17.726;2023-07-16T05:51:30;17.40;99.90
10431;DHT22;5262;59.958;17.726;2023-07-16T05:53:55;17.30;99.90
10431;DHT22;5262;59.958;17.726;2023-07-16T05:56:21;17.30;99.90
10431;DHT22;5262;59.958;17.726;2023-07-16T05:58:47;17.40;99.90
10431;DHT22;5262;59.958;17.726;2023-07-16T06:01:12;17.40;99.90
10431;DHT22;5262;59.958;17.726;2023-07-16T06:03:38;17.60;99.90
10431;DHT22;5262;59.958;17.726;2023-07-16T06:06:03;17.60;99.90
10431;DHT22;5262;59.958;17.726;2023-07-16T06:08:29;17.60;99.90
10431;DHT22;5262;59.958;17.726;2023-07-16T06:10:55;17.70;99.90
10431;DHT22;5262;59.958;17.726;2023-07-16T06:13:20;17.90;99.90
10431;DHT22;5262;59.958;17.726;2023-07-16T06:15:49;18.20;99.90
10431;DHT22;5262;59.958;17.726;2023-07-16T06:18:15;18.30;99.90
10431;DHT22;5262;59.958;17.726;2023-07-16T06:20:49;18.40;99.90
10431;DHT22;5262;59.958;17.726;2023-07-16T06:23:17;18.40;99.90
10431;DHT22;5262;59.958;17.726;2023-07-16T06:25:43;18.50;99.90
10431;DHT22;5262;59.958;17.726;2023-07-16T06:28:14;18.50;99.90
10431;DHT22;5262;59.958;17.726;2023-07-16T06:30:40;18.50;99.90
10431;DHT22;5262;59.958;17.726;2023-07-16T06:33:06;18.40;99.90
10431;DHT22;5262;59.958;17.726;2023-07-16T06:35:32;18.30;99.90
10431;DHT22;5262;59.958;17.726;2023-07-16T06:37:58;18.30;99.90
10431;DHT22;5262;59.958;17.726;2023-07-16T06:40:28;18.40;99.90
10431;DHT22;5262;59.958;17.726;2023-07-16T06:42:54;18.60;99.90
10431;DHT22;5262;59.958;17.726;2023-07-16T06:45:20;18.40;99.90
10431;DHT22;5262;59.958;17.726;2023-07-16T06:47:45;18.40;99.90
10431;DHT22;5262;59.958;17.726;2023-07-16T06:50:11;18.40;99.90
10431;DHT22;5262;59.958;17.726;2023-07-16T06:52:36;18.40;99.90
10431;DHT22;5262;59.958;17.726;2023-07-16T06:55:02;18.30;99.90
10431;DHT22;5262;59.958;17.726;2023-07-16T06:57:28;18.30;99.90
10431;DHT22;5262;59.958;17.726;2023-07-16T06:59:53;18.10;99.90
10431;DHT22;5262;59.958;17.726;2023-07-16T07:02:19;18.10;99.90
10431;DHT22;5262;59.958;17.726;2023-07-16T07:04:44;18.20;99.90
10431;DHT22;5262;59.958;17.726;2023-07-16T07:07:10;18.20;99.90
10431;DHT22;5262;59.958;17.726;2023-07-16T07:09:36;18.20;99.90
10431;DHT22;5262;59.958;17.726;2023-07-16T07:12:02;18.20;99.90
10431;DHT22;5262;59.958;17.726;2023-07-16T07:14:27;18.20;99.90
10431;DHT22;5262;59.958;17.726;2023-07-16T07:16:53;18.30;99.90
10431;DHT22;5262;59.958;17.726;2023-07-16T07:19:19;18.30;99.90
10431;DHT22;5262;59.958;17.726;2023-07-16T07:21:44;18.30;99.90
10431;DHT22;5262;59.958;17.726;2023-07-16T07:24:10;18.20;99.90
10431;DHT22;5262;59.958;17.726;2023-07-16T07:26:36;18.20;99.90
10431;DHT22;5262;59.958;17.726;2023-07-16T07:29:01;18.20;99.90
10431;DHT22;5262;59.958;17.726;2023-07-16T07:31:27;18.20;99.90
10431;DHT22;5262;59.958;17.726;2023-07-16T07:33:53;18.10;99.90
10431;DHT22;5262;59.958;17.726;2023-07-16T07:36:19;18.10;99.90
10431;DHT22;5262;59.958;17.726;2023-07-16T07:38:45;18.00;99.90
10431;DHT22;5262;59.958;17.726;2023-07-16T07:41:10;17.90;99.90
10431;DHT22;5262;59.958;17.726;2023-07-16T07:43:36;17.70;99.90
10431;DHT22;5262;59.958;17.726;2023-07-16T07:46:02;17.60;99.90
10431;DHT22;5262;59.958;17.726;2023-07-16T07:48:27;17.50;99.90
10431;DHT22;5262;59.958;17.726;2023-07-16T07:50:53;17.50;99.90
10431;DHT22;5262;59.958;17.726;2023-07-16T07:53:18;17.50;99.90
10431;DHT22;5262;59.958;17.726;2023-07-16T07:55:44;17.50;99.90
10431;DHT22;5262;59.958;17.726;2023-07-16T07:58:11;17.50;99.90
10431;DHT22;5262;59.958;17.726;2023-07-16T08:00:37;17.50;99.90
10431;DHT22;5262;59.958;17.726;2023-07-16T08:03:02;17.50;99.90
10431;DHT22;5262;59.958;17.726;2023-07-16T08:05:28;17.60;99.90
10431;DHT22;5262;59.958;17.726;2023-07-16T08:07:54;17.50;99.90
10431;DHT22;5262;59.958;17.726;2023-07-16T08:10:21;17.60;99.90
10431;DHT22;5262;59.958;17.726;2023-07-16T08:12:47;17.70;99.90
10431;DHT22;5262;59.958;17.726;2023-07-16T08:15:13;17.80;99.90
10431;DHT22;5262;59.958;17.726;2023-07-16T08:17:44;17.90;99.90
10431;DHT22;5262;59.958;17.726;2023-07-16T08:20:11;17.90;99.90
10431;DHT22;5262;59.958;17.726;2023-07-16T08:22:37;17.90;99.90
10431;DHT22;5262;59.958;17.726;2023-07-16T08:25:03;17.90;99.90
10431;DHT22;5262;59.958;17.726;2023-07-16T08:27:30;17.90;99.90
10431;DHT22;5262;59.958;17.726;2023-07-16T08:29:55;17.90;99.90
10431;DHT22;5262;59.958;17.726;2023-07-16T08:32:21;18.00;99.90
10431;DHT22;5262;59.958;17.726;2023-07-16T08:34:47;18.00;99.90
10431;DHT22;5262;59.958;17.726;2023-07-16T08:37:13;18.10;99.90
10431;DHT22;5262;59.958;17.726;2023-07-16T08:39:39;18.10;99.90
10431;DHT22;5262;59.958;17.726;2023-07-16T08:42:05;18.30;99.90
10431;DHT22;5262;59.958;17.726;2023-07-16T08:44:31;18.30;99.90
10431;DHT22;5262;59.958;17.726;2023-07-16T08:46:57;18.30;99.90
10431;DHT22;5262;59.958;17.726;2023-07-16T08:49:23;18.30;99.90
10431;DHT22;5262;59.958;17.726;2023-07-16T08:51:49;18.30;99.90
10431;DHT22;5262;59.958;17.726;2023-07-16T08:54:15;18.30;99.90
10431;DHT22;5262;59.958;17.726;2023-07-16T08:56:43;18.20;99.90
10431;DHT22;5262;59.958;17.726;2023-07-16T08:59:10;18.20;99.90
10431;DHT22;5262;59.958;17.726;2023-07-16T09:01:37;18.30;99.90
10431;DHT22;5262;59.958;17.726;2023-07-16T09:04:03;18.30;99.90
10431;DHT22;5262;59.958;17.726;2023-07-16T09:06:29;18.30;99.90
10431;DHT22;5262;59.958;17.726;2023-07-16T09:08:55;18.30;99.90
10431;DHT22;5262;59.958;17.726;2023-07-16T09:11:21;18.30;99.90
10431;DHT22;5262;59.958;17.726;2023-07-16T09:13:48;18.30;99.90
10431;DHT22;5262;59.958;17.726;2023-07-16T09:16:14;18.30;99.90
10431;DHT22;5262;59.958;17.726;2023-07-16T09:18:42;18.20;99.90
10431;DHT22;5262;59.958;17.726;2023-07-16T09:21:08;18.20;99.90
10431;DHT22;5262;59.958;17.726;2023-07-16T09:23:34;18.30;99.90
10431;DHT22;5262;59.958;17.726;2023-07-16T09:26:00;18.20;99.90
10431;DHT22;5262;59.958;17.726;2023-07-16T09:28:25;18.30;99.90
10431;DHT22;5262;59.958;17.726;2023-07-16T09:30:51;18.30;99.90
10431;DHT22;5262;59.958;17.726;2023-07-16T09:33:22;18.20;99.90
10431;DHT22;5262;59.958;17.726;2023-07-16T09:35:50;18.10;99.90
10431;DHT22;5262;59.958;17.726;2023-07-16T09:38:16;18.10;99.90
10431;DHT22;5262;59.958;17.726;2023-07-16T09:40:43;18.10;99.90
10431;DHT22;5262;59.958;17.726;2023-07-16T09:43:09;18.00;99.90
10431;DHT22;5262;59.958;17.726;2023-07-16T09:45:36;18.00;99.90
10431;DHT22;5262;59.958;17.726;2023-07-16T09:48:02;17.90;99.90
10431;DHT22;5262;59.958;17.726;2023-07-16T09:50:29;17.80;99.90
10431;DHT22;5262;59.958;17.726;2023-07-16T09:52:56;17.70;99.90
10431;DHT22;5262;59.958;17.726;2023-07-16T09:55:22;17.60;99.90
10431;DHT22;5262;59.958;17.726;2023-07-16T09:57:49;17.50;99.90
10431;DHT22;5262;59.958;17.726;2023-07-16T10:00:16;17.40;99.90
10431;DHT22;5262;59.958;17.726;2023-07-16T10:02:43;17.50;99.90
10431;DHT22;5262;59.958;17.726;2023-07-16T10:05:17;17.60;99.90
10431;DHT22;5262;59.958;17.726;2023-07-16T10:07:50;17.60;99.90
10431;DHT22;5262;59.958;17.726;2023-07-16T10:10:16;17.60;99.90
10431;DHT22;5262;59.958;17.726;2023-07-16T10:12:54;17.60;99.90
10431;DHT22;5262;59.958;17.726;2023-07-16T10:15:28;17.60;99.90
10431;DHT22;5262;59.958;17.726;2023-07-16T10:17:55;17.50;99.90
10431;DHT22;5262;59.958;17.726;2023-07-16T10:20:37;17.40;99.90
10431;DHT22;5262;59.958;17.726;2023-07-16T10:23:15;17.40;99.90
10431;DHT22;5262;59.958;17.726;2023-07-16T10:25:58;17.40;99.90
10431;DHT22;5262;59.958;17.726;2023-07-16T10:28:23;17.40;99.90
10431;DHT22;5262;59.958;17.726;2023-07-16T10:30:49;17.40;99.90
10431;DHT22;5262;59.958;17.726;2023-07-16T10:33:15;17.30;99.90
10431;DHT22;5262;59.958;17.726;2023-07-16T10:35:45;17.20;99.90
10431;DHT22;5262;59.958;17.726;2023-07-16T10:38:11;17.20;99.90
10431;DHT22;5262;59.958;17.726;2023-07-16T10:40:44;17.20;99.90
10431;DHT22;5262;59.958;17.726;2023-07-16T10:43:10;17.20;99.90
10431;DHT22;5262;59.958;17.726;2023-07-16T10:45:36;17.30;99.90
10431;DHT22;5262;59.958;17.726;2023-07-16T10:48:02;17.20;99.90
10431;DHT22;5262;59.958;17.726;2023-07-16T10:50:27;17.30;99.90
10431;DHT22;5262;59.958;17.726;2023-07-16T10:52:54;17.30;99.90
10431;DHT22;5262;59.958;17.726;2023-07-16T10:55:20;17.30;99.90
10431;DHT22;5262;59.958;17.726;2023-07-16T10:57:50;17.20;99.90
10431;DHT22;5262;59.958;17.726;2023-07-16T11:00:17;17.20;99.90
10431;DHT22;5262;59.958;17.726;2023-07-16T11:02:44;17.20;99.90
10431;DHT22;5262;59.958;17.726;2023-07-16T11:05:11;17.10;99.90
10431;DHT22;5262;59.958;17.726;2023-07-16T11:07:38;17.00;99.90
10431;DHT22;5262;59.958;17.726;2023-07-16T11:10:04;17.00;99.90
10431;DHT22;5262;59.958;17.726;2023-07-16T11:12:29;16.90;99.90
10431;DHT22;5262;59.958;17.726;2023-07-16T11:14:55;17.00;99.90
10431;DHT22;5262;59.958;17.726;2023-07-16T11:17:23;16.90;99.90
10431;DHT22;5262;59.958;17.726;2023-07-16T11:19:51;17.00;99.90
10431;DHT22;5262;59.958;17.726;2023-07-16T11:22:17;17.00;99.90
10431;DHT22;5262;59.958;17.726;2023-07-16T11:24:45;16.90;99.90
10431;DHT22;5262;59.958;17.726;2023-07-16T11:27:22;16.90;99.90
10431;DHT22;5262;59.958;17.726;2023-07-16T11:29:55;17.00;99.90
10431;DHT22;5262;59.958;17.726;2023-07-16T11:32:37;17.00;99.90
10431;DHT22;5262;59.958;17.726;2023-07-16T11:35:08;17.10;99.90
10431;DHT22;5262;59.958;17.726;2023-07-16T11:37:35;17.30;99.90
10431;DHT22;5262;59.958;17.726;2023-07-16T11:40:09;17.40;99.90
10431;DHT22;5262;59.958;17.726;2023-07-16T11:42:37;17.40;99.90
10431;DHT22;5262;59.958;17.726;2023-07-16T11:45:03;17.50;99.90
10431;DHT22;5262;59.958;17.726;2023-07-16T11:47:30;17.40;99.90
10431;DHT22;5262;59.958;17.726;2023-07-16T11:49:56;17.50;99.90
10431;DHT22;5262;59.958;17.726;2023-07-16T11:52:27;17.50;99.90
10431;DHT22;5262;59.958;17.726;2023-07-16T11:54:53;17.60;99.90
10431;DHT22;5262;59.958;17.726;2023-07-16T11:57:19;17.80;99.90
10431;DHT22;5262;59.958;17.726;2023-07-16T11:59:45;18.00;99.90
10431;DHT22;5262;59.958;17.726;2023-07-16T12:02:11;18.40;99.90
10431;DHT22;5262;59.958;17.726;2023-07-16T12:04:37;19.10;99.90
10431;DHT22;5262;59.958;17.726;2023-07-16T12:07:03;19.50;99.90
10431;DHT22;5262;59.958;17.726;2023-07-16T12:09:28;19.80;99.90
10431;DHT22;5262;59.958;17.726;2023-07-16T12:11:54;20.30;99.90
10431;DHT22;5262;59.958;17.726;2023-07-16T12:14:20;20.80;99.90
10431;DHT22;5262;59.958;17.726;2023-07-16T12:16:45;21.20;99.90
10431;DHT22;5262;59.958;17.726;2023-07-16T12:19:11;21.10;99.90
10431;DHT22;5262;59.958;17.726;2023-07-16T12:21:37;20.80;99.90
10431;DHT22;5262;59.958;17.726;2023-07-16T12:24:02;20.40;99.90
10431;DHT22;5262;59.958;17.726;2023-07-16T12:26:28;20.30;99.90
10431;DHT22;5262;59.958;17.726;2023-07-16T12:28:54;20.10;99.90
10431;DHT22;5262;59.958;17.726;2023-07-16T12:31:20;19.90;99.90
10431;DHT22;5262;59.958;17.726;2023-07-16T12:33:46;19.60;99.90
10431;DHT22;5262;59.958;17.726;2023-07-16T12:36:13;19.70;99.90
10431;DHT22;5262;59.958;17.726;2023-07-16T12:38:38;19.70;99.90
10431;DHT22;5262;59.958;17.726;2023-07-16T12:41:05;19.90;99.90
10431;DHT22;5262;59.958;17.726;2023-07-16T12:43:31;20.20;99.90
10431;DHT22;5262;59.958;17.726;2023-07-16T12:46:00;20.10;99.90
10431;DHT22;5262;59.958;17.726;2023-07-16T12:48:26;20.00;99.90
10431;DHT22;5262;59.958;17.726;2023-07-16T12:50:52;19.90;99.90
10431;DHT22;5262;59.958;17.726;2023-07-16T12:53:17;20.10;99.90
10431;DHT22;5262;59.958;17.726;2023-07-16T12:55:43;20.40;99.90
10431;DHT22;5262;59.958;17.726;2023-07-16T12:58:08;20.40;99.90
10431;DHT22;5262;59.958;17.726;2023-07-16T13:00:34;20.50;99.90
10431;DHT22;5262;59.958;17.726;2023-07-16T13:03:00;21.30;99.90
10431;DHT22;5262;59.958;17.726;2023-07-16T13:05:26;21.40;99.90
10431;DHT22;5262;59.958;17.726;2023-07-16T13:07:51;21.40;99.90
10431;DHT22;5262;59.958;17.726;2023-07-16T13:10:17;21.10;99.90
10431;DHT22;5262;59.958;17.726;2023-07-16T13:12:44;21.00;99.90
10431;DHT22;5262;59.958;17.726;2023-07-16T13:15:10;21.50;99.90
10431;DHT22;5262;59.958;17.726;2023-07-16T13:17:35;21.60;99.90
10431;DHT22;5262;59.958;17.726;2023-07-16T13:20:02;21.80;99.90
10431;DHT22;5262;59.958;17.726;2023-07-16T13:22:28;21.60;99.90
10431;DHT22;5262;59.958;17.726;2023-07-16T13:24:54;21.60;99.90
10431;DHT22;5262;59.958;17.726;2023-07-16T13:27:23;21.80;99.90
10431;DHT22;5262;59.958;17.726;2023-07-16T13:29:49;22.20;99.90
10431;DHT22;5262;59.958;17.726;2023-07-16T13:32:15;21.70;99.90
10431;DHT22;5262;59.958;17.726;2023-07-16T13:34:41;21.40;99.90
10431;DHT22;5262;59.958;17.726;2023-07-16T13:37:07;21.50;99.90
10431;DHT22;5262;59.958;17.726;2023-07-16T13:39:32;21.80;99.90
10431;DHT22;5262;59.958;17.726;2023-07-16T13:41:58;21.90;99.90
10431;DHT22;5262;59.958;17.726;2023-07-16T13:44:24;22.20;99.90
10431;DHT22;5262;59.958;17.726;2023-07-16T13:46:50;22.20;99.90
10431;DHT22;5262;59.958;17.726;2023-07-16T13:49:16;21.80;99.90
10431;DHT22;5262;59.958;17.726;2023-07-16T13:51:41;22.10;99.90
10431;DHT22;5262;59.958;17.726;2023-07-16T13:54:07;22.10;99.90
10431;DHT22;5262;59.958;17.726;2023-07-16T13:56:33;22.10;99.90
10431;DHT22;5262;59.958;17.726;2023-07-16T13:58:58;21.70;99.90
10431;DHT22;5262;59.958;17.726;2023-07-16T14:01:24;22.20;99.90
10431;DHT22;5262;59.958;17.726;2023-07-16T14:03:50;22.30;99.90
10431;DHT22;5262;59.958;17.726;2023-07-16T14:06:16;22.60;99.90
10431;DHT22;5262;59.958;17.726;2023-07-16T14:08:41;22.60;99.90
10431;DHT22;5262;59.958;17.726;2023-07-16T14:11:07;22.40;99.90
10431;DHT22;5262;59.958;17.726;2023-07-16T14:13:33;22.20;99.90
10431;DHT22;5262;59.958;17.726;2023-07-16T14:15:58;21.90;99.90
10431;DHT22;5262;59.958;17.726;2023-07-16T14:18:24;21.70;99.90
10431;DHT22;5262;59.958;17.726;2023-07-16T14:20:50;21.60;99.90
10431;DHT22;5262;59.958;17.726;2023-07-16T14:23:15;21.80;99.90
10431;DHT22;5262;59.958;17.726;2023-07-16T14:25:41;22.10;99.90
10431;DHT22;5262;59.958;17.726;2023-07-16T14:28:06;22.10;99.90
10431;DHT22;5262;59.958;17.726;2023-07-16T14:30:32;22.40;99.90
10431;DHT22;5262;59.958;17.726;2023-07-16T14:32:58;22.50;99.90
10431;DHT22;5262;59.958;17.726;2023-07-16T14:35:25;22.40;99.90
10431;DHT22;5262;59.958;17.726;2023-07-16T14:37:50;22.50;99.90
10431;DHT22;5262;59.958;17.726;2023-07-16T14:40:16;22.60;99.90
10431;DHT22;5262;59.958;17.726;2023-07-16T14:42:43;22.60;99.90
10431;DHT22;5262;59.958;17.726;2023-07-16T14:45:09;22.40;99.90
10431;DHT22;5262;59.958;17.726;2023-07-16T14:47:35;22.20;99.90
10431;DHT22;5262;59.958;17.726;2023-07-16T14:50:00;22.20;99.90
10431;DHT22;5262;59.958;17.726;2023-07-16T14:52:26;22.60;99.90
10431;DHT22;5262;59.958;17.726;2023-07-16T14:54:51;22.70;99.90
10431;DHT22;5262;59.958;17.726;2023-07-16T14:57:17;22.60;99.90
10431;DHT22;5262;59.958;17.726;2023-07-16T14:59:43;22.60;99.90
10431;DHT22;5262;59.958;17.726;2023-07-16T15:02:09;22.30;99.90
10431;DHT22;5262;59.958;17.726;2023-07-16T15:04:35;22.20;99.90
10431;DHT22;5262;59.958;17.726;2023-07-16T15:07:00;22.20;99.90
10431;DHT22;5262;59.958;17.726;2023-07-16T15:09:26;22.30;99.90
10431;DHT22;5262;59.958;17.726;2023-07-16T15:11:52;22.50;99.90
10431;DHT22;5262;59.958;17.726;2023-07-16T15:14:18;22.40;99.90
10431;DHT22;5262;59.958;17.726;2023-07-16T15:16:44;21.90;99.90
10431;DHT22;5262;59.958;17.726;2023-07-16T15:19:09;21.50;99.90
10431;DHT22;5262;59.958;17.726;2023-07-16T15:21:35;21.40;99.90
10431;DHT22;5262;59.958;17.726;2023-07-16T15:24:05;21.30;99.90
10431;DHT22;5262;59.958;17.726;2023-07-16T15:26:30;21.40;99.90
10431;DHT22;5262;59.958;17.726;2023-07-16T15:28:57;21.50;99.90
10431;DHT22;5262;59.958;17.726;2023-07-16T15:31:23;21.60;99.90